sensor_id;sensor_type;location;lat;lon;timestamp;P1;durP1;ratioP1;P2;durP2;ratioP2
7330;SDS011;3706;49.198;7.064;2023-12-29T00:01:23;7.83;;;5.23;;
7330;SDS011;3706;49.198;7.064;2023-12-29T00:03:55;7.47;;;5.53;;
7330;SDS011;3706;49.198;7.064;2023-12-29T00:06:22;8.90;;;6.50;;
7330;SDS011;3706;49.198;7.064;2023-12-29T00:08:50;7.30;;;4.87;;
7330;SDS011;3706;49.198;7.064;2023-12-29T00:11:17;13.50;;;6.77;;
7330;SDS011;3706;49.198;7.064;2023-12-29T00:13:47;10.43;;;7.23;;
7330;SDS011;3706;49.198;7.064;2023-12-29T00:16:14;10.10;;;6.17;;
7330;SDS011;3706;49.198;7.064;2023-12-29T00:18:41;11.80;;;6.63;;
7330;SDS011;3706;49.198;7.064;2023-12-29T00:21:08;7.33;;;6.17;;
7330;SDS011;3706;49.198;7.064;2023-12-29T00:23:35;10.40;;;6.53;;
7330;SDS011;3706;49.198;7.064;2023-12-29T00:26:03;10.43;;;6.13;;
7330;SDS011;3706;49.198;7.064;2023-12-29T00:28:30;8.97;;;6.73;;
7330;SDS011;3706;49.198;7.064;2023-12-29T00:30:58;8.17;;;5.80;;
7330;SDS011;3706;49.198;7.064;2023-12-29T00:33:26;7.87;;;4.40;;
7330;SDS011;3706;49.198;7.064;2023-12-29T00:35:53;10.97;;;5.60;;
7330;SDS011;3706;49.198;7.064;2023-12-29T00:38:20;8.60;;;5.83;;
7330;SDS011;3706;49.198;7.064;2023-12-29T00:40:48;8.93;;;5.60;;
7330;SDS011;3706;49.198;7.064;2023-12-29T00:43:15;8.10;;;4.83;;
7330;SDS011;3706;49.198;7.064;2023-12-29T00:45:42;5.93;;;4.90;;
7330;SDS011;3706;49.198;7.064;2023-12-29T00:48:11;5.73;;;4.50;;
7330;SDS011;3706;49.198;7.064;2023-12-29T00:50:38;7.20;;;4.50;;
7330;SDS011;3706;49.198;7.064;2023-12-29T00:53:06;5.13;;;4.10;;
7330;SDS011;3706;49.198;7.064;2023-12-29T00:55:33;8.43;;;4.90;;
7330;SDS011;3706;49.198;7.064;2023-12-29T00:57:59;4.97;;;3.90;;
7330;SDS011;3706;49.198;7.064;2023-12-29T01:00:26;5.03;;;3.90;;
7330;SDS011;3706;49.198;7.064;2023-12-29T01:02:53;5.43;;;3.60;;
7330;SDS011;3706;49.198;7.064;2023-12-29T01:05:22;4.40;;;3.63;;
7330;SDS011;3706;49.198;7.064;2023-12-29T01:07:49;4.00;;;3.50;;
7330;SDS011;3706;49.198;7.064;2023-12-29T01:10:16;4.87;;;3.70;;
7330;SDS011;3706;49.198;7.064;2023-12-29T01:12:43;6.90;;;3.67;;
7330;SDS011;3706;49.198;7.064;2023-12-29T01:15:10;5.50;;;3.33;;
7330;SDS011;3706;49.198;7.064;2023-12-29T01:17:37;7.33;;;3.17;;
7330;SDS011;3706;49.198;7.064;2023-12-29T01:20:05;4.73;;;3.47;;
7330;SDS011;3706;49.198;7.064;2023-12-29T01:22:36;6.37;;;3.43;;
7330;SDS011;3706;49.198;7.064;2023-12-29T01:25:04;3.80;;;3.13;;
7330;SDS011;3706;49.198;7.064;2023-12-29T01:27:32;3.77;;;3.07;;
7330;SDS011;3706;49.198;7.064;2023-12-29T01:29:59;5.40;;;3.50;;
7330;SDS011;3706;49.198;7.064;2023-12-29T01:32:26;4.03;;;3.00;;
7330;SDS011;3706;49.198;7.064;2023-12-29T01:34:56;4.87;;;3.40;;
7330;SDS011;3706;49.198;7.064;2023-12-29T01:37:24;4.50;;;2.90;;
7330;SDS011;3706;49.198;7.064;2023-12-29T01:39:52;2.97;;;2.67;;
7330;SDS011;3706;49.198;7.064;2023-12-29T01:42:20;4.50;;;3.70;;
7330;SDS011;3706;49.198;7.064;2023-12-29T01:44:47;4.63;;;3.17;;
7330;SDS011;3706;49.198;7.064;2023-12-29T01:47:19;3.23;;;2.80;;
7330;SDS011;3706;49.198;7.064;2023-12-29T01:49:48;6.37;;;3.63;;
7330;SDS011;3706;49.198;7.064;2023-12-29T01:52:16;4.90;;;3.30;;
7330;SDS011;3706;49.198;7.064;2023-12-29T01:54:44;3.23;;;2.80;;
7330;SDS011;3706;49.198;7.064;2023-12-29T01:57:14;4.10;;;3.10;;
7330;SDS011;3706;49.198;7.064;2023-12-29T01:59:43;6.30;;;3.27;;
7330;SDS011;3706;49.198;7.064;2023-12-29T02:02:12;5.13;;;3.23;;
7330;SDS011;3706;49.198;7.064;2023-12-29T02:04:43;7.43;;;3.90;;
7330;SDS011;3706;49.198;7.064;2023-12-29T02:07:11;4.23;;;3.00;;
7330;SDS011;3706;49.198;7.064;2023-12-29T02:09:39;5.57;;;3.03;;
7330;SDS011;3706;49.198;7.064;2023-12-29T02:12:06;4.37;;;3.00;;
7330;SDS011;3706;49.198;7.064;2023-12-29T02:14:35;3.23;;;2.90;;
7330;SDS011;3706;49.198;7.064;2023-12-29T02:17:05;3.40;;;2.73;;
7330;SDS011;3706;49.198;7.064;2023-12-29T02:19:37;4.23;;;3.30;;
7330;SDS011;3706;49.198;7.064;2023-12-29T02:22:06;4.60;;;3.17;;
7330;SDS011;3706;49.198;7.064;2023-12-29T02:24:34;6.33;;;3.40;;
7330;SDS011;3706;49.198;7.064;2023-12-29T02:27:05;5.53;;;3.27;;
7330;SDS011;3706;49.198;7.064;2023-12-29T02:29:40;5.17;;;3.10;;
7330;SDS011;3706;49.198;7.064;2023-12-29T02:32:16;4.43;;;3.53;;
7330;SDS011;3706;49.198;7.064;2023-12-29T02:34:45;4.80;;;3.03;;
7330;SDS011;3706;49.198;7.064;2023-12-29T02:37:18;4.17;;;3.10;;
7330;SDS011;3706;49.198;7.064;2023-12-29T02:39:46;5.90;;;3.50;;
7330;SDS011;3706;49.198;7.064;2023-12-29T02:42:17;5.90;;;3.17;;
7330;SDS011;3706;49.198;7.064;2023-12-29T02:44:45;5.47;;;3.53;;
7330;SDS011;3706;49.198;7.064;2023-12-29T02:47:12;5.67;;;3.70;;
7330;SDS011;3706;49.198;7.064;2023-12-29T02:49:41;5.20;;;3.47;;
7330;SDS011;3706;49.198;7.064;2023-12-29T02:52:08;6.13;;;3.90;;
7330;SDS011;3706;49.198;7.064;2023-12-29T02:54:35;4.03;;;3.23;;
7330;SDS011;3706;49.198;7.064;2023-12-29T02:57:03;6.50;;;3.60;;
7330;SDS011;3706;49.198;7.064;2023-12-29T02:59:32;5.30;;;4.30;;
7330;SDS011;3706;49.198;7.064;2023-12-29T03:01:59;4.30;;;3.40;;
7330;SDS011;3706;49.198;7.064;2023-12-29T03:09:03;3.45;;;2.83;;
7330;SDS011;3706;49.198;7.064;2023-12-29T03:11:29;5.10;;;4.03;;
7330;SDS011;3706;49.198;7.064;2023-12-29T03:18:15;3.20;;;2.55;;
7330;SDS011;3706;49.198;7.064;2023-12-29T03:21:56;4.43;;;3.50;;
7330;SDS011;3706;49.198;7.064;2023-12-29T03:25:37;5.35;;;3.75;;
7330;SDS011;3706;49.198;7.064;2023-12-29T03:29:16;3.83;;;3.38;;
7330;SDS011;3706;49.198;7.064;2023-12-29T03:32:53;4.32;;;3.50;;
7330;SDS011;3706;49.198;7.064;2023-12-29T03:36:34;3.85;;;2.95;;
7330;SDS011;3706;49.198;7.064;2023-12-29T03:39:04;4.00;;;2.92;;
7330;SDS011;3706;49.198;7.064;2023-12-29T03:41:31;6.83;;;3.53;;
7330;SDS011;3706;49.198;7.064;2023-12-29T03:43:58;6.83;;;4.50;;
7330;SDS011;3706;49.198;7.064;2023-12-29T03:46:25;7.07;;;4.40;;
7330;SDS011;3706;49.198;7.064;2023-12-29T03:49:01;5.70;;;4.50;;
7330;SDS011;3706;49.198;7.064;2023-12-29T03:51:29;9.37;;;5.20;;
7330;SDS011;3706;49.198;7.064;2023-12-29T03:54:00;6.27;;;4.77;;
7330;SDS011;3706;49.198;7.064;2023-12-29T03:56:28;5.37;;;4.03;;
7330;SDS011;3706;49.198;7.064;2023-12-29T03:58:55;7.30;;;5.40;;
7330;SDS011;3706;49.198;7.064;2023-12-29T04:01:23;6.50;;;4.67;;
7330;SDS011;3706;49.198;7.064;2023-12-29T04:03:52;8.83;;;5.37;;
7330;SDS011;3706;49.198;7.064;2023-12-29T04:06:21;6.30;;;4.87;;
7330;SDS011;3706;49.198;7.064;2023-12-29T04:08:48;5.93;;;4.33;;
7330;SDS011;3706;49.198;7.064;2023-12-29T04:11:15;8.20;;;5.40;;
7330;SDS011;3706;49.198;7.064;2023-12-29T04:13:43;8.70;;;4.63;;
7330;SDS011;3706;49.198;7.064;2023-12-29T04:16:10;6.33;;;5.17;;
7330;SDS011;3706;49.198;7.064;2023-12-29T04:18:37;7.63;;;4.20;;
7330;SDS011;3706;49.198;7.064;2023-12-29T04:21:04;5.90;;;4.80;;
7330;SDS011;3706;49.198;7.064;2023-12-29T04:23:36;6.83;;;4.87;;
7330;SDS011;3706;49.198;7.064;2023-12-29T04:26:03;8.17;;;5.03;;
7330;SDS011;3706;49.198;7.064;2023-12-29T04:28:31;6.43;;;4.67;;
7330;SDS011;3706;49.198;7.064;2023-12-29T04:30:58;6.50;;;5.00;;
7330;SDS011;3706;49.198;7.064;2023-12-29T04:33:25;7.33;;;5.10;;
7330;SDS011;3706;49.198;7.064;2023-12-29T04:35:53;6.73;;;5.00;;
7330;SDS011;3706;49.198;7.064;2023-12-29T04:38:20;8.70;;;4.70;;
7330;SDS011;3706;49.198;7.064;2023-12-29T04:40:49;7.43;;;4.93;;
7330;SDS011;3706;49.198;7.064;2023-12-29T04:43:16;6.27;;;4.80;;
7330;SDS011;3706;49.198;7.064;2023-12-29T04:45:43;6.10;;;4.73;;
7330;SDS011;3706;49.198;7.064;2023-12-29T04:48:10;6.80;;;4.97;;
7330;SDS011;3706;49.198;7.064;2023-12-29T04:50:37;6.33;;;4.97;;
7330;SDS011;3706;49.198;7.064;2023-12-29T04:53:05;10.80;;;5.27;;
7330;SDS011;3706;49.198;7.064;2023-12-29T04:55:32;6.97;;;4.90;;
7330;SDS011;3706;49.198;7.064;2023-12-29T04:58:00;6.27;;;4.93;;
7330;SDS011;3706;49.198;7.064;2023-12-29T05:00:27;7.67;;;5.10;;
7330;SDS011;3706;49.198;7.064;2023-12-29T05:02:54;7.13;;;4.50;;
7330;SDS011;3706;49.198;7.064;2023-12-29T05:05:22;7.10;;;4.70;;
7330;SDS011;3706;49.198;7.064;2023-12-29T05:07:49;4.37;;;3.97;;
7330;SDS011;3706;49.198;7.064;2023-12-29T05:10:16;5.80;;;4.60;;
7330;SDS011;3706;49.198;7.064;2023-12-29T05:12:43;6.50;;;4.33;;
7330;SDS011;3706;49.198;7.064;2023-12-29T05:15:12;6.67;;;4.13;;
7330;SDS011;3706;49.198;7.064;2023-12-29T05:17:39;6.30;;;3.63;;
7330;SDS011;3706;49.198;7.064;2023-12-29T05:20:07;4.80;;;4.30;;
7330;SDS011;3706;49.198;7.064;2023-12-29T05:22:35;6.07;;;3.67;;
7330;SDS011;3706;49.198;7.064;2023-12-29T05:25:02;9.37;;;5.17;;
7330;SDS011;3706;49.198;7.064;2023-12-29T05:27:30;5.10;;;4.00;;
7330;SDS011;3706;49.198;7.064;2023-12-29T05:29:57;4.93;;;3.90;;
7330;SDS011;3706;49.198;7.064;2023-12-29T05:32:26;4.57;;;3.60;;
7330;SDS011;3706;49.198;7.064;2023-12-29T05:34:53;5.57;;;3.73;;
7330;SDS011;3706;49.198;7.064;2023-12-29T05:37:20;5.43;;;3.73;;
7330;SDS011;3706;49.198;7.064;2023-12-29T05:39:47;6.93;;;3.57;;
7330;SDS011;3706;49.198;7.064;2023-12-29T05:42:14;4.70;;;3.90;;
7330;SDS011;3706;49.198;7.064;2023-12-29T05:44:41;5.70;;;3.60;;
7330;SDS011;3706;49.198;7.064;2023-12-29T05:47:09;6.00;;;3.53;;
7330;SDS011;3706;49.198;7.064;2023-12-29T05:49:37;4.23;;;3.63;;
7330;SDS011;3706;49.198;7.064;2023-12-29T05:52:05;6.33;;;2.90;;
7330;SDS011;3706;49.198;7.064;2023-12-29T05:54:33;4.00;;;3.07;;
7330;SDS011;3706;49.198;7.064;2023-12-29T05:57:06;4.20;;;3.30;;
7330;SDS011;3706;49.198;7.064;2023-12-29T05:59:36;4.97;;;3.30;;
7330;SDS011;3706;49.198;7.064;2023-12-29T06:02:05;3.53;;;3.00;;
7330;SDS011;3706;49.198;7.064;2023-12-29T06:04:32;3.17;;;2.80;;
7330;SDS011;3706;49.198;7.064;2023-12-29T06:07:01;3.40;;;3.00;;
7330;SDS011;3706;49.198;7.064;2023-12-29T06:09:28;3.50;;;2.80;;
7330;SDS011;3706;49.198;7.064;2023-12-29T06:11:55;3.93;;;2.40;;
7330;SDS011;3706;49.198;7.064;2023-12-29T06:14:23;4.33;;;2.67;;
7330;SDS011;3706;49.198;7.064;2023-12-29T06:16:50;3.10;;;2.47;;
7330;SDS011;3706;49.198;7.064;2023-12-29T06:19:19;2.47;;;2.20;;
7330;SDS011;3706;49.198;7.064;2023-12-29T06:21:46;3.60;;;2.10;;
7330;SDS011;3706;49.198;7.064;2023-12-29T06:24:15;2.57;;;2.10;;
7330;SDS011;3706;49.198;7.064;2023-12-29T06:26:43;2.60;;;1.80;;
7330;SDS011;3706;49.198;7.064;2023-12-29T06:29:10;2.70;;;2.20;;
7330;SDS011;3706;49.198;7.064;2023-12-29T06:31:39;3.30;;;2.07;;
7330;SDS011;3706;49.198;7.064;2023-12-29T06:34:07;3.13;;;2.00;;
7330;SDS011;3706;49.198;7.064;2023-12-29T06:36:35;4.40;;;2.20;;
7330;SDS011;3706;49.198;7.064;2023-12-29T06:39:02;2.27;;;2.07;;
7330;SDS011;3706;49.198;7.064;2023-12-29T06:41:31;4.60;;;2.10;;
7330;SDS011;3706;49.198;7.064;2023-12-29T06:43:58;4.90;;;2.30;;
7330;SDS011;3706;49.198;7.064;2023-12-29T06:46:26;2.80;;;2.00;;
7330;SDS011;3706;49.198;7.064;2023-12-29T06:48:55;6.63;;;2.33;;
7330;SDS011;3706;49.198;7.064;2023-12-29T06:51:22;2.93;;;2.13;;
7330;SDS011;3706;49.198;7.064;2023-12-29T06:53:49;4.70;;;2.17;;
7330;SDS011;3706;49.198;7.064;2023-12-29T06:56:17;3.17;;;1.77;;
7330;SDS011;3706;49.198;7.064;2023-12-29T06:58:49;2.60;;;2.07;;
7330;SDS011;3706;49.198;7.064;2023-12-29T07:01:16;4.20;;;2.30;;
7330;SDS011;3706;49.198;7.064;2023-12-29T07:03:46;3.27;;;2.40;;
7330;SDS011;3706;49.198;7.064;2023-12-29T07:06:16;2.93;;;2.33;;
7330;SDS011;3706;49.198;7.064;2023-12-29T07:08:43;6.37;;;2.70;;
7330;SDS011;3706;49.198;7.064;2023-12-29T07:11:12;3.50;;;2.70;;
7330;SDS011;3706;49.198;7.064;2023-12-29T07:13:39;5.20;;;2.63;;
7330;SDS011;3706;49.198;7.064;2023-12-29T07:16:08;3.60;;;2.57;;
7330;SDS011;3706;49.198;7.064;2023-12-29T07:18:35;4.50;;;2.80;;
7330;SDS011;3706;49.198;7.064;2023-12-29T07:21:02;3.83;;;2.87;;
7330;SDS011;3706;49.198;7.064;2023-12-29T07:23:30;6.43;;;2.73;;
7330;SDS011;3706;49.198;7.064;2023-12-29T07:25:57;3.63;;;2.63;;
7330;SDS011;3706;49.198;7.064;2023-12-29T07:28:24;4.90;;;2.67;;
7330;SDS011;3706;49.198;7.064;2023-12-29T07:30:51;3.40;;;2.80;;
7330;SDS011;3706;49.198;7.064;2023-12-29T07:33:22;3.83;;;2.60;;
7330;SDS011;3706;49.198;7.064;2023-12-29T07:35:50;3.10;;;2.60;;
7330;SDS011;3706;49.198;7.064;2023-12-29T07:38:17;4.20;;;2.63;;
7330;SDS011;3706;49.198;7.064;2023-12-29T07:40:44;5.50;;;4.00;;
7330;SDS011;3706;49.198;7.064;2023-12-29T07:43:13;6.13;;;3.37;;
7330;SDS011;3706;49.198;7.064;2023-12-29T07:45:40;5.23;;;3.50;;
7330;SDS011;3706;49.198;7.064;2023-12-29T07:48:10;5.60;;;3.10;;
7330;SDS011;3706;49.198;7.064;2023-12-29T07:50:43;4.87;;;2.93;;
7330;SDS011;3706;49.198;7.064;2023-12-29T07:53:11;3.13;;;2.50;;
7330;SDS011;3706;49.198;7.064;2023-12-29T07:55:38;3.43;;;2.90;;
7330;SDS011;3706;49.198;7.064;2023-12-29T07:58:06;3.53;;;2.90;;
7330;SDS011;3706;49.198;7.064;2023-12-29T08:00:35;4.13;;;2.80;;
7330;SDS011;3706;49.198;7.064;2023-12-29T08:03:09;4.57;;;2.77;;
7330;SDS011;3706;49.198;7.064;2023-12-29T08:05:39;2.97;;;2.40;;
7330;SDS011;3706;49.198;7.064;2023-12-29T08:08:09;4.70;;;2.90;;
7330;SDS011;3706;49.198;7.064;2023-12-29T08:10:39;4.07;;;2.63;;
7330;SDS011;3706;49.198;7.064;2023-12-29T08:13:06;4.27;;;2.60;;
7330;SDS011;3706;49.198;7.064;2023-12-29T08:15:34;6.83;;;3.40;;
7330;SDS011;3706;49.198;7.064;2023-12-29T08:18:02;2.77;;;2.50;;
7330;SDS011;3706;49.198;7.064;2023-12-29T08:20:29;2.97;;;2.50;;
7330;SDS011;3706;49.198;7.064;2023-12-29T08:22:59;4.60;;;2.50;;
7330;SDS011;3706;49.198;7.064;2023-12-29T08:25:35;3.23;;;2.40;;
7330;SDS011;3706;49.198;7.064;2023-12-29T08:28:03;4.43;;;2.60;;
7330;SDS011;3706;49.198;7.064;2023-12-29T08:30:30;3.40;;;2.10;;
7330;SDS011;3706;49.198;7.064;2023-12-29T08:33:00;2.80;;;2.20;;
7330;SDS011;3706;49.198;7.064;2023-12-29T08:35:27;3.57;;;2.10;;
7330;SDS011;3706;49.198;7.064;2023-12-29T08:37:54;3.27;;;2.03;;
7330;SDS011;3706;49.198;7.064;2023-12-29T08:40:21;15.97;;;10.40;;
7330;SDS011;3706;49.198;7.064;2023-12-29T08:42:50;2.00;;;1.60;;
7330;SDS011;3706;49.198;7.064;2023-12-29T08:45:18;1.60;;;1.50;;
7330;SDS011;3706;49.198;7.064;2023-12-29T08:47:48;1.60;;;1.40;;
7330;SDS011;3706;49.198;7.064;2023-12-29T08:50:15;3.13;;;1.93;;
7330;SDS011;3706;49.198;7.064;2023-12-29T08:52:42;3.03;;;1.67;;
7330;SDS011;3706;49.198;7.064;2023-12-29T08:55:09;6.07;;;1.80;;
7330;SDS011;3706;49.198;7.064;2023-12-29T08:57:37;3.53;;;1.70;;
7330;SDS011;3706;49.198;7.064;2023-12-29T09:00:07;2.53;;;1.80;;
7330;SDS011;3706;49.198;7.064;2023-12-29T09:02:35;1.83;;;1.50;;
7330;SDS011;3706;49.198;7.064;2023-12-29T09:05:02;2.10;;;1.80;;
7330;SDS011;3706;49.198;7.064;2023-12-29T09:07:29;1.60;;;1.50;;
7330;SDS011;3706;49.198;7.064;2023-12-29T09:09:57;3.57;;;2.00;;
7330;SDS011;3706;49.198;7.064;2023-12-29T09:12:24;2.50;;;1.60;;
7330;SDS011;3706;49.198;7.064;2023-12-29T09:14:51;4.40;;;2.10;;
7330;SDS011;3706;49.198;7.064;2023-12-29T09:17:19;2.47;;;1.37;;
7330;SDS011;3706;49.198;7.064;2023-12-29T09:19:46;3.33;;;1.93;;
7330;SDS011;3706;49.198;7.064;2023-12-29T09:22:13;2.10;;;1.57;;
7330;SDS011;3706;49.198;7.064;2023-12-29T09:24:41;1.87;;;1.50;;
7330;SDS011;3706;49.198;7.064;2023-12-29T09:27:08;2.67;;;1.30;;
7330;SDS011;3706;49.198;7.064;2023-12-29T09:29:36;2.73;;;1.50;;
7330;SDS011;3706;49.198;7.064;2023-12-29T09:32:05;2.47;;;1.50;;
7330;SDS011;3706;49.198;7.064;2023-12-29T09:34:35;5.43;;;2.03;;
7330;SDS011;3706;49.198;7.064;2023-12-29T09:37:02;3.10;;;1.50;;
7330;SDS011;3706;49.198;7.064;2023-12-29T09:39:29;2.00;;;1.40;;
7330;SDS011;3706;49.198;7.064;2023-12-29T09:41:58;2.77;;;1.90;;
7330;SDS011;3706;49.198;7.064;2023-12-29T09:44:27;5.00;;;1.50;;
7330;SDS011;3706;49.198;7.064;2023-12-29T09:46:54;3.10;;;1.60;;
7330;SDS011;3706;49.198;7.064;2023-12-29T09:49:23;2.47;;;1.97;;
7330;SDS011;3706;49.198;7.064;2023-12-29T09:51:53;5.33;;;1.67;;
7330;SDS011;3706;49.198;7.064;2023-12-29T09:54:22;1.73;;;1.00;;
7330;SDS011;3706;49.198;7.064;2023-12-29T09:56:53;3.87;;;1.50;;
7330;SDS011;3706;49.198;7.064;2023-12-29T09:59:20;3.53;;;1.40;;
7330;SDS011;3706;49.198;7.064;2023-12-29T10:01:49;2.20;;;1.13;;
7330;SDS011;3706;49.198;7.064;2023-12-29T10:04:17;2.07;;;1.53;;
7330;SDS011;3706;49.198;7.064;2023-12-29T10:06:48;3.37;;;1.83;;
7330;SDS011;3706;49.198;7.064;2023-12-29T10:09:28;5.60;;;1.93;;
7330;SDS011;3706;49.198;7.064;2023-12-29T10:11:59;1.83;;;1.50;;
7330;SDS011;3706;49.198;7.064;2023-12-29T10:14:41;4.00;;;2.00;;
7330;SDS011;3706;49.198;7.064;2023-12-29T10:17:19;1.67;;;1.30;;
7330;SDS011;3706;49.198;7.064;2023-12-29T10:20:06;1.40;;;1.30;;
7330;SDS011;3706;49.198;7.064;2023-12-29T10:29:59;2.97;;;1.60;;
7330;SDS011;3706;49.198;7.064;2023-12-29T10:33:04;2.43;;;1.50;;
7330;SDS011;3706;49.198;7.064;2023-12-29T10:35:31;2.13;;;1.23;;
7330;SDS011;3706;49.198;7.064;2023-12-29T10:38:09;1.93;;;1.33;;
7330;SDS011;3706;49.198;7.064;2023-12-29T10:40:46;4.40;;;1.60;;
7330;SDS011;3706;49.198;7.064;2023-12-29T10:43:21;2.20;;;1.00;;
7330;SDS011;3706;49.198;7.064;2023-12-29T10:46:07;1.93;;;1.40;;
7330;SDS011;3706;49.198;7.064;2023-12-29T10:48:35;1.63;;;1.43;;
7330;SDS011;3706;49.198;7.064;2023-12-29T10:51:06;3.43;;;1.40;;
7330;SDS011;3706;49.198;7.064;2023-12-29T10:53:33;2.30;;;1.37;;
7330;SDS011;3706;49.198;7.064;2023-12-29T10:56:01;3.73;;;1.90;;
7330;SDS011;3706;49.198;7.064;2023-12-29T10:58:29;2.90;;;1.70;;
7330;SDS011;3706;49.198;7.064;2023-12-29T11:00:58;3.53;;;1.70;;
7330;SDS011;3706;49.198;7.064;2023-12-29T11:03:58;3.40;;;1.50;;
7330;SDS011;3706;49.198;7.064;2023-12-29T11:06:26;2.47;;;1.40;;
7330;SDS011;3706;49.198;7.064;2023-12-29T11:08:54;3.10;;;1.70;;
7330;SDS011;3706;49.198;7.064;2023-12-29T11:11:22;3.20;;;1.40;;
7330;SDS011;3706;49.198;7.064;2023-12-29T11:13:55;2.07;;;1.40;;
7330;SDS011;3706;49.198;7.064;2023-12-29T11:16:48;4.10;;;2.77;;
7330;SDS011;3706;49.198;7.064;2023-12-29T11:19:50;3.33;;;2.43;;
7330;SDS011;3706;49.198;7.064;2023-12-29T11:22:53;1.63;;;1.53;;
7330;SDS011;3706;49.198;7.064;2023-12-29T11:25:20;2.30;;;1.70;;
7330;SDS011;3706;49.198;7.064;2023-12-29T11:27:49;1.57;;;1.33;;
7330;SDS011;3706;49.198;7.064;2023-12-29T11:30:21;1.90;;;1.07;;
7330;SDS011;3706;49.198;7.064;2023-12-29T11:32:49;1.70;;;1.50;;
7330;SDS011;3706;49.198;7.064;2023-12-29T11:35:25;5.47;;;1.80;;
7330;SDS011;3706;49.198;7.064;2023-12-29T11:38:01;2.47;;;1.50;;
7330;SDS011;3706;49.198;7.064;2023-12-29T11:41:01;2.43;;;1.67;;
7330;SDS011;3706;49.198;7.064;2023-12-29T11:43:32;1.60;;;1.30;;
7330;SDS011;3706;49.198;7.064;2023-12-29T11:45:59;1.20;;;1.10;;
7330;SDS011;3706;49.198;7.064;2023-12-29T11:51:30;2.80;;;1.30;;
7330;SDS011;3706;49.198;7.064;2023-12-29T11:53:59;3.23;;;1.40;;
7330;SDS011;3706;49.198;7.064;2023-12-29T11:56:38;3.60;;;1.30;;
7330;SDS011;3706;49.198;7.064;2023-12-29T11:59:17;1.90;;;1.27;;
7330;SDS011;3706;49.198;7.064;2023-12-29T12:01:48;3.10;;;1.27;;
7330;SDS011;3706;49.198;7.064;2023-12-29T12:07:15;1.57;;;1.47;;
7330;SDS011;3706;49.198;7.064;2023-12-29T12:09:46;1.70;;;1.33;;
7330;SDS011;3706;49.198;7.064;2023-12-29T12:12:37;3.53;;;1.43;;
7330;SDS011;3706;49.198;7.064;2023-12-29T12:15:30;1.37;;;1.27;;
7330;SDS011;3706;49.198;7.064;2023-12-29T12:18:01;2.67;;;1.67;;
7330;SDS011;3706;49.198;7.064;2023-12-29T12:20:34;2.60;;;1.53;;
7330;SDS011;3706;49.198;7.064;2023-12-29T12:23:07;1.60;;;1.10;;
7330;SDS011;3706;49.198;7.064;2023-12-29T12:25:40;2.03;;;1.47;;
7330;SDS011;3706;49.198;7.064;2023-12-29T12:28:08;1.80;;;1.40;;
7330;SDS011;3706;49.198;7.064;2023-12-29T12:30:36;2.33;;;1.50;;
7330;SDS011;3706;49.198;7.064;2023-12-29T12:33:06;2.17;;;1.30;;
7330;SDS011;3706;49.198;7.064;2023-12-29T12:35:36;3.53;;;1.67;;
7330;SDS011;3706;49.198;7.064;2023-12-29T12:38:08;5.60;;;1.20;;
7330;SDS011;3706;49.198;7.064;2023-12-29T12:40:36;2.80;;;1.40;;
7330;SDS011;3706;49.198;7.064;2023-12-29T12:43:03;3.40;;;1.30;;
7330;SDS011;3706;49.198;7.064;2023-12-29T12:45:40;1.93;;;1.33;;
7330;SDS011;3706;49.198;7.064;2023-12-29T12:48:09;1.80;;;1.30;;
7330;SDS011;3706;49.198;7.064;2023-12-29T12:50:42;5.07;;;1.50;;
7330;SDS011;3706;49.198;7.064;2023-12-29T12:53:11;2.13;;;1.30;;
7330;SDS011;3706;49.198;7.064;2023-12-29T12:55:45;4.47;;;2.23;;
7330;SDS011;3706;49.198;7.064;2023-12-29T12:58:18;2.80;;;1.53;;
7330;SDS011;3706;49.198;7.064;2023-12-29T13:00:48;3.13;;;1.57;;
7330;SDS011;3706;49.198;7.064;2023-12-29T13:03:22;2.40;;;1.10;;
7330;SDS011;3706;49.198;7.064;2023-12-29T13:05:57;2.33;;;1.20;;
7330;SDS011;3706;49.198;7.064;2023-12-29T13:08:27;6.13;;;1.30;;
7330;SDS011;3706;49.198;7.064;2023-12-29T13:11:02;4.37;;;1.70;;
7330;SDS011;3706;49.198;7.064;2023-12-29T13:13:45;3.33;;;1.60;;
7330;SDS011;3706;49.198;7.064;2023-12-29T13:16:46;5.80;;;1.83;;
7330;SDS011;3706;49.198;7.064;2023-12-29T13:19:55;3.30;;;1.20;;
7330;SDS011;3706;49.198;7.064;2023-12-29T13:22:53;4.63;;;1.57;;
7330;SDS011;3706;49.198;7.064;2023-12-29T13:28:35;3.40;;;1.20;;
7330;SDS011;3706;49.198;7.064;2023-12-29T13:31:03;3.53;;;1.90;;
7330;SDS011;3706;49.198;7.064;2023-12-29T13:33:33;3.90;;;1.00;;
7330;SDS011;3706;49.198;7.064;2023-12-29T13:36:08;4.80;;;1.20;;
7330;SDS011;3706;49.198;7.064;2023-12-29T13:38:47;7.80;;;1.90;;
7330;SDS011;3706;49.198;7.064;2023-12-29T13:41:20;3.80;;;1.67;;
7330;SDS011;3706;49.198;7.064;2023-12-29T13:43:50;2.40;;;1.00;;
7330;SDS011;3706;49.198;7.064;2023-12-29T13:46:19;3.27;;;1.27;;
7330;SDS011;3706;49.198;7.064;2023-12-29T13:48:46;1.20;;;1.10;;
7330;SDS011;3706;49.198;7.064;2023-12-29T13:51:16;4.30;;;1.47;;
7330;SDS011;3706;49.198;7.064;2023-12-29T13:53:57;2.63;;;1.30;;
7330;SDS011;3706;49.198;7.064;2023-12-29T13:56:31;4.87;;;1.60;;
7330;SDS011;3706;49.198;7.064;2023-12-29T13:58:59;6.47;;;1.90;;
7330;SDS011;3706;49.198;7.064;2023-12-29T14:01:34;4.40;;;1.73;;
7330;SDS011;3706;49.198;7.064;2023-12-29T14:04:02;5.93;;;1.87;;
7330;SDS011;3706;49.198;7.064;2023-12-29T14:06:36;3.17;;;1.40;;
7330;SDS011;3706;49.198;7.064;2023-12-29T14:09:13;3.77;;;1.30;;
7330;SDS011;3706;49.198;7.064;2023-12-29T14:11:43;2.93;;;1.40;;
7330;SDS011;3706;49.198;7.064;2023-12-29T14:14:12;4.70;;;1.40;;
7330;SDS011;3706;49.198;7.064;2023-12-29T14:16:40;3.33;;;1.10;;
7330;SDS011;3706;49.198;7.064;2023-12-29T14:19:08;3.90;;;1.40;;
7330;SDS011;3706;49.198;7.064;2023-12-29T14:21:37;5.43;;;1.50;;
7330;SDS011;3706;49.198;7.064;2023-12-29T14:24:18;3.03;;;1.20;;
7330;SDS011;3706;49.198;7.064;2023-12-29T14:26:57;1.60;;;1.03;;
7330;SDS011;3706;49.198;7.064;2023-12-29T14:29:25;3.83;;;1.33;;
7330;SDS011;3706;49.198;7.064;2023-12-29T14:31:53;2.23;;;1.20;;
7330;SDS011;3706;49.198;7.064;2023-12-29T14:34:21;2.67;;;1.17;;
7330;SDS011;3706;49.198;7.064;2023-12-29T14:36:48;3.93;;;1.50;;
7330;SDS011;3706;49.198;7.064;2023-12-29T14:39:15;4.07;;;1.27;;
7330;SDS011;3706;49.198;7.064;2023-12-29T14:41:42;4.07;;;1.17;;
7330;SDS011;3706;49.198;7.064;2023-12-29T14:44:10;3.70;;;1.70;;
7330;SDS011;3706;49.198;7.064;2023-12-29T14:46:42;6.70;;;1.63;;
7330;SDS011;3706;49.198;7.064;2023-12-29T14:49:21;5.70;;;2.77;;
7330;SDS011;3706;49.198;7.064;2023-12-29T14:51:52;4.13;;;1.73;;
7330;SDS011;3706;49.198;7.064;2023-12-29T14:54:23;6.23;;;2.07;;
7330;SDS011;3706;49.198;7.064;2023-12-29T14:56:53;3.00;;;1.17;;
7330;SDS011;3706;49.198;7.064;2023-12-29T14:59:21;2.70;;;1.10;;
7330;SDS011;3706;49.198;7.064;2023-12-29T15:01:49;3.23;;;1.23;;
7330;SDS011;3706;49.198;7.064;2023-12-29T15:04:16;5.23;;;1.53;;
7330;SDS011;3706;49.198;7.064;2023-12-29T15:06:43;2.27;;;1.27;;
7330;SDS011;3706;49.198;7.064;2023-12-29T15:09:10;3.43;;;1.50;;
7330;SDS011;3706;49.198;7.064;2023-12-29T15:11:38;4.53;;;1.60;;
7330;SDS011;3706;49.198;7.064;2023-12-29T15:14:05;4.33;;;1.30;;
7330;SDS011;3706;49.198;7.064;2023-12-29T15:16:51;3.60;;;1.20;;
7330;SDS011;3706;49.198;7.064;2023-12-29T15:19:45;4.93;;;1.40;;
7330;SDS011;3706;49.198;7.064;2023-12-29T15:22:14;5.50;;;1.53;;
7330;SDS011;3706;49.198;7.064;2023-12-29T15:25:02;2.13;;;1.50;;
7330;SDS011;3706;49.198;7.064;2023-12-29T15:33:41;5.57;;;1.60;;
7330;SDS011;3706;49.198;7.064;2023-12-29T15:36:37;1.67;;;1.10;;
7330;SDS011;3706;49.198;7.064;2023-12-29T15:39:41;8.37;;;1.73;;
7330;SDS011;3706;49.198;7.064;2023-12-29T15:42:37;5.47;;;2.03;;
7330;SDS011;3706;49.198;7.064;2023-12-29T15:45:26;3.17;;;1.83;;
7330;SDS011;3706;49.198;7.064;2023-12-29T15:48:23;4.83;;;2.30;;
7330;SDS011;3706;49.198;7.064;2023-12-29T15:54:45;5.47;;;1.80;;
7330;SDS011;3706;49.198;7.064;2023-12-29T15:57:52;3.07;;;1.60;;
7330;SDS011;3706;49.198;7.064;2023-12-29T16:00:49;4.70;;;1.43;;
7330;SDS011;3706;49.198;7.064;2023-12-29T16:03:27;4.27;;;1.50;;
7330;SDS011;3706;49.198;7.064;2023-12-29T16:05:58;6.60;;;1.63;;
7330;SDS011;3706;49.198;7.064;2023-12-29T16:08:27;9.10;;;1.67;;
7330;SDS011;3706;49.198;7.064;2023-12-29T16:10:54;4.57;;;1.77;;
7330;SDS011;3706;49.198;7.064;2023-12-29T16:13:22;3.40;;;1.67;;
7330;SDS011;3706;49.198;7.064;2023-12-29T16:15:54;4.03;;;2.37;;
7330;SDS011;3706;49.198;7.064;2023-12-29T16:18:44;4.17;;;1.50;;